createdAt,value
2023-02-23T00:03:01.718Z,101123.59
2023-02-23T00:07:03.393Z,101133.97
2023-02-23T00:11:13.155Z,101128.69
2023-02-23T00:15:17.214Z,101131.44
2023-02-23T00:19:28.706Z,101130.81
2023-02-23T00:23:31.561Z,101135.47
2023-02-23T00:27:32.201Z,101132.88
2023-02-23T00:31:34.841Z,101132.47
2023-02-23T00:35:41.622Z,101133.63
2023-02-23T00:39:49.390Z,101130.31
2023-02-23T00:43:56.013Z,101133.41
2023-02-23T00:47:59.931Z,101124.00
2023-02-23T00:52:09.907Z,101127.13
2023-02-23T00:56:11.569Z,101132.88
2023-02-23T01:00:25.618Z,101132.63
2023-02-23T01:04:30.862Z,101122.03
2023-02-23T01:08:34.475Z,101125.47
2023-02-23T01:12:36.711Z,101117.03
2023-02-23T01:16:41.179Z,101113.84
2023-02-23T01:20:43.936Z,101120.03
2023-02-23T01:24:47.091Z,101114.06
2023-02-23T01:28:51.820Z,101111.59
2023-02-23T01:32:52.351Z,101114.38
2023-02-23T01:36:57.190Z,101116.19
2023-02-23T01:41:06.703Z,101122.16
2023-02-23T01:45:27.963Z,101120.59
2023-02-23T01:49:38.640Z,101113.53
2023-02-23T01:53:45.326Z,101115.00
2023-02-23T01:57:50.225Z,101115.59
2023-02-23T02:01:51.450Z,101111.22
2023-02-23T02:05:52.736Z,101102.84
2023-02-23T02:10:18.817Z,101104.13
2023-02-23T02:14:23.968Z,101117.31
2023-02-23T02:18:33.721Z,101124.47
2023-02-23T02:22:50.813Z,101115.72
2023-02-23T02:27:02.056Z,101112.59
2023-02-23T02:31:25.117Z,101117.81
2023-02-23T02:35:38.139Z,101121.25
2023-02-23T02:39:50.354Z,101112.84
2023-02-23T02:43:59.292Z,101114.66
2023-02-23T02:48:06.691Z,101125.03
2023-02-23T02:52:11.633Z,101121.47
2023-02-23T02:56:19.870Z,101126.16
2023-02-23T03:00:38.418Z,101127.81
2023-02-23T03:04:55.560Z,101126.03
2023-02-23T03:09:20.153Z,101127.06
2023-02-23T03:13:46.551Z,101131.44
2023-02-23T03:18:05.179Z,101130.97
2023-02-23T03:22:29.151Z,101141.63
2023-02-23T03:26:50.169Z,101144.59
2023-02-23T03:31:14.195Z,101147.44
2023-02-23T03:35:38.046Z,101156.66
2023-02-23T03:39:57.221Z,101158.13
2023-02-23T03:44:19.369Z,101155.50
2023-02-23T03:48:47.233Z,101150.06
2023-02-23T03:53:13.178Z,101152.47
2023-02-23T03:57:37.293Z,101155.06
2023-02-23T04:02:02.717Z,101154.88
2023-02-23T04:06:30.685Z,101156.38
2023-02-23T04:10:50.994Z,101161.22
2023-02-23T04:14:55.105Z,101158.28
2023-02-23T04:18:56.923Z,101171.00
2023-02-23T04:22:59.806Z,101168.94
2023-02-23T04:27:02.865Z,101165.06
2023-02-23T04:31:03.767Z,101165.81
2023-02-23T04:35:04.650Z,101170.88
2023-02-23T04:39:08.430Z,101177.72
2023-02-23T04:43:09.733Z,101181.97
2023-02-23T04:47:10.172Z,101182.63
2023-02-23T04:51:20.525Z,101187.75
2023-02-23T04:59:44.870Z,101188.94
2023-02-23T05:03:46.333Z,101195.19
2023-02-23T05:07:54.245Z,101189.41
2023-02-23T05:11:58.471Z,101190.59
2023-02-23T05:16:08.482Z,101201.88
2023-02-23T05:20:10.146Z,101207.13
2023-02-23T05:24:23.767Z,101207.03
2023-02-23T05:28:29.710Z,101220.88
2023-02-23T05:33:06.805Z,101227.44
2023-02-23T05:37:23.628Z,101214.72
2023-02-23T05:41:25.299Z,101225.28
2023-02-23T05:45:33.253Z,101232.09
2023-02-23T05:49:35.325Z,101235.66
2023-02-23T05:53:43.061Z,101245.28
2023-02-23T05:57:50.388Z,101245.88
2023-02-23T06:01:55.849Z,101256.56
2023-02-23T06:05:57.357Z,101227.63
2023-02-23T06:09:58.150Z,101261.81
2023-02-23T06:14:00.586Z,101270.66
2023-02-23T06:18:04.358Z,101291.72
2023-02-23T06:22:09.495Z,101290.78
2023-02-23T06:26:10.040Z,101301.25
2023-02-23T06:30:10.807Z,101300.69
2023-02-23T06:34:17.073Z,101307.97
2023-02-23T06:38:21.589Z,101314.81
2023-02-23T06:42:22.074Z,101313.44
2023-02-23T06:46:28.868Z,101322.50
2023-02-23T06:50:36.974Z,101327.38
2023-02-23T06:54:40.434Z,101321.13
2023-02-23T06:58:40.674Z,101320.44
2023-02-23T07:02:42.251Z,101327.75
2023-02-23T07:06:47.887Z,101328.66
2023-02-23T07:10:50.870Z,101323.13
2023-02-23T07:14:57.673Z,101330.59
2023-02-23T07:18:58.205Z,101324.53
2023-02-23T07:23:11.444Z,101330.50
2023-02-23T07:27:25.654Z,101331.97
2023-02-23T07:31:39.024Z,101341.19
2023-02-23T07:35:41.991Z,101342.47
2023-02-23T07:39:47.438Z,101345.25
2023-02-23T07:43:47.836Z,101340.16
2023-02-23T07:47:49.093Z,101343.13
2023-02-23T07:51:49.644Z,101344.13
2023-02-23T07:56:01.189Z,101358.06
2023-02-23T08:00:09.311Z,101352.16
2023-02-23T08:04:12.544Z,101352.53
2023-02-23T08:08:14.634Z,101355.72
2023-02-23T08:12:17.710Z,101358.94
2023-02-23T08:16:20.600Z,101361.13
2023-02-23T08:20:24.338Z,101361.72
2023-02-23T08:24:25.095Z,101361.59
2023-02-23T08:28:28.096Z,101362.75
2023-02-23T08:32:29.865Z,101366.84
2023-02-23T08:36:30.842Z,101373.00
2023-02-23T08:40:35.330Z,101374.41
2023-02-23T08:44:45.576Z,101377.09
2023-02-23T08:48:55.087Z,101387.59
2023-02-23T08:52:57.824Z,101390.25
2023-02-23T08:56:59.400Z,101383.41
2023-02-23T09:01:05.828Z,101389.34
2023-02-23T09:05:06.528Z,101383.41
2023-02-23T09:09:07.053Z,101388.13
2023-02-23T09:13:09.747Z,101391.00
2023-02-23T09:17:12.527Z,101391.94
2023-02-23T09:21:27.822Z,101388.47
2023-02-23T09:25:31.579Z,101394.34
2023-02-23T09:29:32.266Z,101400.66
2023-02-23T09:33:35.877Z,101396.91
2023-02-23T09:37:40.426Z,101403.13
2023-02-23T09:42:11.173Z,101412.75
2023-02-23T09:46:17.369Z,101397.00
2023-02-23T09:50:25.256Z,101397.78
2023-02-23T09:54:27.528Z,101397.16
2023-02-23T09:58:31.256Z,101407.66
2023-02-23T10:02:41.213Z,101398.91
2023-02-23T10:06:48.513Z,101401.47
2023-02-23T10:10:50.997Z,101387.91
2023-02-23T10:15:15.295Z,101389.78
2023-02-23T10:19:25.483Z,101392.69
2023-02-23T10:23:46.047Z,101377.09
2023-02-23T10:28:01.870Z,101375.47
2023-02-23T10:32:03.675Z,101385.25
2023-02-23T10:36:18.735Z,101387.97
2023-02-23T10:40:34.412Z,101379.06
2023-02-23T10:44:35.462Z,101377.28
2023-02-23T10:48:43.284Z,101370.34
2023-02-23T10:52:49.959Z,101381.81
2023-02-23T10:57:01.032Z,101352.78
2023-02-23T11:01:05.169Z,101368.88
2023-02-23T11:05:07.743Z,101357.50
2023-02-23T11:09:26.889Z,101359.41
2023-02-23T11:13:41.588Z,101347.28
2023-02-23T11:17:46.436Z,101349.16
2023-02-23T11:21:54.452Z,101342.34
2023-02-23T11:26:00.932Z,101339.81
2023-02-23T11:30:09.929Z,101334.41
2023-02-23T11:34:26.172Z,101344.16
2023-02-23T11:38:36.503Z,101342.38
2023-02-23T11:42:57.671Z,101335.44
2023-02-23T11:47:09.925Z,101334.47
2023-02-23T11:52:01.005Z,101339.72
2023-02-23T11:56:42.098Z,101343.13
2023-02-23T12:01:31.085Z,101355.41
2023-02-23T12:15:12.841Z,101365.22
2023-02-23T12:19:43.222Z,101357.56
2023-02-23T12:23:54.270Z,101355.91
2023-02-23T12:28:10.337Z,101350.66
2023-02-23T12:32:25.626Z,101351.47
2023-02-23T12:36:32.335Z,101350.53
2023-02-23T12:40:39.129Z,101354.88
2023-02-23T12:44:46.937Z,101384.69
2023-02-23T12:49:06.619Z,101354.63
2023-02-23T12:53:15.355Z,101364.25
2023-02-23T12:57:25.200Z,101364.25
2023-02-23T13:01:29.917Z,101369.59
2023-02-23T13:05:34.170Z,101352.88
2023-02-23T13:09:43.215Z,101371.28
2023-02-23T13:14:14.492Z,101368.63
2023-02-23T13:18:36.212Z,101373.00
2023-02-23T13:22:40.439Z,101368.44
2023-02-23T13:26:45.277Z,101373.66
2023-02-23T13:30:50.517Z,101380.66
2023-02-23T13:34:56.499Z,101374.63
2023-02-23T13:39:21.308Z,101384.28
2023-02-23T13:43:37.114Z,101386.53
2023-02-23T13:47:43.495Z,101389.88
2023-02-23T13:52:13.710Z,101394.84
2023-02-23T13:56:20.504Z,101397.97
2023-02-23T14:00:41.312Z,101393.25
2023-02-23T14:05:02.534Z,101393.97
2023-02-23T14:09:24.276Z,101398.03
2023-02-23T14:13:32.700Z,101393.72
2023-02-23T14:17:51.773Z,101394.00
2023-02-23T14:21:56.218Z,101399.47
2023-02-23T14:26:18.757Z,101404.66
2023-02-23T14:30:28.859Z,101410.00
2023-02-23T14:35:03.668Z,101408.81
2023-02-23T14:39:08.203Z,101400.22
2023-02-23T14:43:30.925Z,101392.47
2023-02-23T14:47:47.264Z,101401.97
2023-02-23T14:52:00.058Z,101399.50
2023-02-23T14:56:07.698Z,101389.13
2023-02-23T15:00:26.568Z,101394.34
2023-02-23T15:04:32.757Z,101395.06
2023-02-23T15:08:55.913Z,101396.84
2023-02-23T15:12:56.655Z,101401.94
2023-02-23T15:17:01.388Z,101396.69
2023-02-23T15:21:10.492Z,101396.63
2023-02-23T15:25:17.320Z,101397.38
2023-02-23T15:29:18.661Z,101408.75
2023-02-23T15:33:23.563Z,101412.78
2023-02-23T15:37:31.566Z,101414.03
2023-02-23T15:41:56.236Z,101420.50
2023-02-23T15:46:05.877Z,101425.88
2023-02-23T15:50:11.043Z,101427.19
2023-02-23T15:54:30.876Z,101443.66
2023-02-23T15:58:33.101Z,101442.16
2023-02-23T16:02:38.974Z,101444.81
2023-02-23T16:06:47.605Z,101457.47
2023-02-23T16:11:02.984Z,101460.69
2023-02-23T16:15:06.095Z,101460.63
2023-02-23T16:19:26.499Z,101469.03
2023-02-23T16:23:34.468Z,101469.38
2023-02-23T16:27:50.770Z,101468.44
2023-02-23T16:31:52.754Z,101479.38
2023-02-23T16:35:55.288Z,101484.72
2023-02-23T16:40:05.679Z,101497.66
2023-02-23T16:44:43.523Z,101494.97
2023-02-23T16:49:19.261Z,101501.69
2023-02-23T16:58:26.190Z,101509.41
2023-02-23T17:02:33.927Z,101508.19
2023-02-23T17:07:00.914Z,101515.59
2023-02-23T17:20:51.504Z,101523.09
2023-02-23T17:25:06.823Z,101519.38
2023-02-23T17:29:14.933Z,101524.66
2023-02-23T17:33:27.163Z,101526.63
2023-02-23T17:37:29.358Z,101521.69
2023-02-23T17:41:47.903Z,101527.88
2023-02-23T17:45:57.387Z,101528.81
2023-02-23T17:50:01.565Z,101536.16
2023-02-23T17:54:09.946Z,101534.66
2023-02-23T17:58:14.199Z,101529.78
2023-02-23T18:02:22.394Z,101529.34
2023-02-23T18:06:22.992Z,101533.19
2023-02-23T18:10:25.646Z,101538.94
2023-02-23T18:14:25.860Z,101543.78
2023-02-23T18:18:28.547Z,101534.53
2023-02-23T18:22:28.647Z,101540.13
2023-02-23T18:26:30.039Z,101537.34
2023-02-23T18:30:40.209Z,101538.41
2023-02-23T18:34:51.743Z,101549.69
2023-02-23T18:39:02.390Z,101547.22
2023-02-23T18:43:17.476Z,101547.09
2023-02-23T18:47:24.663Z,101541.88
2023-02-23T18:51:38.732Z,101541.41
2023-02-23T18:55:39.121Z,101548.09
2023-02-23T18:59:39.586Z,101548.34
2023-02-23T19:03:44.746Z,101550.88
2023-02-23T19:07:46.916Z,101547.69
2023-02-23T19:11:52.269Z,101548.38
2023-02-23T19:16:14.983Z,101558.03
2023-02-23T19:20:28.708Z,101549.22
2023-02-23T19:24:52.390Z,101566.19
2023-02-23T19:29:23.826Z,101572.31
2023-02-23T19:33:47.306Z,101568.97
2023-02-23T19:37:52.513Z,101576.78
2023-02-23T19:41:57.127Z,101572.63
2023-02-23T19:46:00.130Z,101575.97
2023-02-23T19:50:04.001Z,101575.97
2023-02-23T19:54:10.278Z,101574.19
2023-02-23T19:58:21.250Z,101574.34
2023-02-23T20:02:24.623Z,101582.16
2023-02-23T20:06:31.102Z,101575.19
2023-02-23T20:10:34.548Z,101570.66
2023-02-23T20:14:40.573Z,101570.34
2023-02-23T20:18:51.083Z,101559.97
2023-02-23T20:22:55.565Z,101566.28
2023-02-23T20:26:59.029Z,101558.22
2023-02-23T20:31:23.277Z,101552.25
2023-02-23T20:35:31.234Z,101555.44
2023-02-23T20:39:35.554Z,101553.41
2023-02-23T20:43:36.569Z,101552.50
2023-02-23T20:47:45.343Z,101547.13
2023-02-23T20:51:49.364Z,101549.03
2023-02-23T20:55:51.038Z,101548.19
2023-02-23T20:59:55.996Z,101544.78
2023-02-23T21:04:02.626Z,101541.81
2023-02-23T21:08:04.119Z,101545.56
2023-02-23T21:12:08.013Z,101537.75
2023-02-23T21:16:18.606Z,101543.13
2023-02-23T21:20:21.829Z,101540.34
2023-02-23T21:24:22.428Z,101537.38
2023-02-23T21:28:23.114Z,101533.91
2023-02-23T21:32:47.277Z,101535.72
2023-02-23T21:36:56.953Z,101534.66
2023-02-23T21:41:02.093Z,101539.13
2023-02-23T21:45:05.300Z,101544.41
2023-02-23T21:49:10.314Z,101538.25
2023-02-23T21:53:29.427Z,101544.28
2023-02-23T21:57:37.296Z,101539.91
2023-02-23T22:01:39.424Z,101530.53
2023-02-23T22:05:42.157Z,101531.22
2023-02-23T22:09:51.438Z,101527.81
2023-02-23T22:13:59.044Z,101520.69
2023-02-23T22:18:04.715Z,101524.09
2023-02-23T22:22:24.192Z,101528.75
2023-02-23T22:26:27.467Z,101523.00
2023-02-23T22:30:54.196Z,101519.63
2023-02-23T22:34:57.959Z,101520.88
2023-02-23T22:39:03.181Z,101509.47
2023-02-23T22:43:07.438Z,101502.56
2023-02-23T22:47:15.287Z,101504.00
2023-02-23T22:51:19.812Z,101506.28
2023-02-23T22:55:31.683Z,101500.34
2023-02-23T23:00:00.999Z,101498.69
2023-02-23T23:04:23.883Z,101493.47
2023-02-23T23:08:39.769Z,101494.94
2023-02-23T23:13:06.955Z,101477.66
2023-02-23T23:17:17.044Z,101474.94
2023-02-23T23:21:37.269Z,101471.47
2023-02-23T23:26:24.996Z,101475.44
2023-02-23T23:30:58.353Z,101466.19
2023-02-23T23:35:33.487Z,101460.22
2023-02-23T23:39:39.320Z,101459.16
2023-02-23T23:44:08.948Z,101442.53
2023-02-23T23:48:18.006Z,101443.50
2023-02-23T23:52:35.663Z,101438.19
2023-02-23T23:56:44.696Z,101438.16
